createdAt,value
2018-08-13T00:01:48.444Z,90.90
2018-08-13T00:02:48.384Z,90.90
2018-08-13T00:04:41.169Z,88.41
2018-08-13T00:05:41.096Z,88.94
2018-08-13T00:07:33.878Z,89.04
2018-08-13T00:08:33.802Z,90.52
2018-08-13T00:10:26.600Z,91.63
2018-08-13T00:11:26.548Z,91.91
2018-08-13T00:13:19.337Z,90.67
2018-08-13T00:14:19.271Z,89.80
2018-08-13T00:16:12.019Z,89.51
2018-08-13T00:17:11.962Z,90.76
2018-08-13T00:19:04.840Z,92.01
2018-08-13T00:20:04.670Z,90.95
2018-08-13T00:21:57.459Z,90.00
2018-08-13T00:22:57.400Z,90.76
2018-08-13T00:24:50.194Z,90.09
2018-08-13T00:25:50.116Z,92.01
2018-08-13T00:27:42.919Z,89.04
2018-08-13T00:28:42.819Z,90.47
2018-08-13T00:30:35.609Z,91.14
2018-08-13T00:31:35.543Z,91.91
2018-08-13T00:33:28.343Z,92.68
2018-08-13T00:34:28.258Z,92.73
2018-08-13T00:36:21.023Z,93.54
2018-08-13T00:37:20.996Z,93.88
2018-08-13T00:39:13.767Z,93.78
2018-08-13T00:40:13.677Z,95.03
2018-08-13T00:42:06.458Z,94.84
2018-08-13T00:43:06.392Z,96.27
2018-08-13T00:44:59.188Z,95.22
2018-08-13T00:45:59.159Z,96.08
2018-08-13T00:47:51.895Z,93.11
2018-08-13T00:48:51.842Z,95.03
2018-08-13T00:50:44.648Z,94.35
2018-08-13T00:51:44.550Z,92.35
2018-08-13T00:53:37.353Z,95.22
2018-08-13T00:54:37.282Z,95.51
2018-08-13T00:56:30.091Z,94.74
2018-08-13T00:57:30.041Z,91.86
2018-08-13T00:59:22.830Z,92.77
2018-08-13T01:00:22.749Z,94.40
2018-08-13T01:02:15.527Z,92.97
2018-08-13T01:03:15.466Z,92.77
2018-08-13T01:05:08.261Z,92.10
2018-08-13T01:06:08.185Z,92.87
2018-08-13T01:08:00.980Z,90.28
2018-08-13T01:09:00.885Z,89.90
2018-08-13T01:10:53.678Z,92.87
2018-08-13T01:11:53.617Z,94.21
2018-08-13T01:13:46.438Z,93.06
2018-08-13T01:14:46.361Z,92.30
2018-08-13T01:16:39.125Z,91.63
2018-08-13T01:17:39.063Z,93.06
2018-08-13T01:19:31.853Z,92.39
2018-08-13T01:20:31.786Z,92.97
2018-08-13T01:22:24.559Z,93.06
2018-08-13T01:23:24.490Z,93.35
2018-08-13T01:25:17.304Z,93.35
2018-08-13T01:26:17.218Z,92.54
2018-08-13T01:28:09.987Z,93.98
2018-08-13T01:29:09.919Z,94.93
2018-08-13T01:31:02.728Z,95.12
2018-08-13T01:32:02.662Z,95.60
2018-08-13T01:33:55.477Z,96.27
2018-08-13T01:34:55.395Z,95.98
2018-08-13T01:36:48.150Z,96.84
2018-08-13T01:37:48.094Z,97.04
2018-08-13T01:39:40.876Z,96.75
2018-08-13T01:40:40.797Z,96.70
2018-08-13T01:42:33.612Z,96.89
2018-08-13T01:43:33.544Z,96.89
2018-08-13T01:45:26.334Z,97.38
2018-08-13T01:46:26.260Z,97.28
2018-08-13T01:48:19.046Z,98.33
2018-08-13T01:49:18.967Z,98.62
2018-08-13T01:51:11.763Z,99.58
2018-08-13T01:52:11.683Z,98.62
2018-08-13T01:54:04.466Z,98.91
2018-08-13T01:55:04.401Z,98.81
2018-08-13T01:56:57.174Z,98.52
2018-08-13T01:57:57.117Z,98.05
2018-08-13T01:59:49.901Z,98.81
2018-08-13T02:00:49.815Z,99.19
2018-08-13T02:02:42.588Z,98.81
2018-08-13T02:03:42.524Z,99.00
2018-08-13T02:05:35.311Z,98.81
2018-08-13T02:06:35.241Z,99.38
2018-08-13T02:08:28.010Z,99.19
2018-08-13T02:09:27.932Z,99.29
2018-08-13T02:11:20.732Z,99.33
2018-08-13T02:12:20.654Z,99.33
2018-08-13T02:14:13.447Z,99.24
2018-08-13T02:15:13.363Z,99.72
2018-08-13T02:17:06.137Z,99.99
2018-08-13T02:18:06.082Z,99.99
2018-08-13T02:19:58.848Z,99.72
2018-08-13T02:20:58.773Z,99.05
2018-08-13T02:22:51.540Z,98.66
2018-08-13T02:23:51.472Z,99.43
2018-08-13T02:25:44.256Z,99.33
2018-08-13T02:26:44.182Z,99.15
2018-08-13T02:28:36.969Z,99.57
2018-08-13T02:29:36.909Z,99.99
2018-08-13T02:31:29.695Z,99.99
2018-08-13T02:32:29.618Z,99.99
2018-08-13T02:34:22.399Z,99.99
2018-08-13T02:35:22.334Z,99.99
2018-08-13T02:37:15.095Z,99.99
2018-08-13T02:38:15.042Z,99.99
2018-08-13T02:40:07.901Z,99.99
2018-08-13T02:41:07.810Z,99.99
2018-08-13T02:43:00.586Z,99.99
2018-08-13T02:44:00.511Z,99.99
2018-08-13T02:45:53.306Z,99.99
2018-08-13T02:46:53.226Z,99.99
2018-08-13T02:48:46.013Z,99.99
2018-08-13T02:49:45.952Z,99.99
2018-08-13T02:51:38.756Z,99.99
2018-08-13T02:52:38.673Z,99.99
2018-08-13T02:54:31.479Z,99.99
2018-08-13T02:55:31.401Z,99.99
2018-08-13T02:57:24.184Z,99.99
2018-08-13T02:58:24.117Z,99.99
2018-08-13T03:00:16.899Z,99.99
2018-08-13T03:01:16.822Z,99.99
2018-08-13T03:03:09.605Z,99.99
2018-08-13T03:04:09.539Z,99.99
2018-08-13T03:06:02.326Z,99.99
2018-08-13T03:07:02.255Z,99.99
2018-08-13T03:08:55.027Z,99.99
2018-08-13T03:09:54.956Z,99.99
2018-08-13T03:11:47.750Z,99.99
2018-08-13T03:12:47.676Z,99.99
2018-08-13T03:14:40.478Z,99.99
2018-08-13T03:15:40.379Z,99.99
2018-08-13T03:17:33.159Z,99.99
2018-08-13T03:18:33.084Z,99.99
2018-08-13T03:20:25.918Z,99.99
2018-08-13T03:21:25.795Z,99.99
2018-08-13T03:23:18.577Z,99.99
2018-08-13T03:24:18.513Z,99.99
2018-08-13T03:26:11.323Z,99.99
2018-08-13T03:27:11.228Z,99.99
2018-08-13T03:29:04.014Z,99.99
2018-08-13T03:30:03.949Z,99.99
2018-08-13T03:31:56.749Z,99.99
2018-08-13T03:32:56.654Z,99.99
2018-08-13T03:34:49.443Z,99.99
2018-08-13T03:35:49.364Z,99.99
2018-08-13T03:37:42.150Z,99.99
2018-08-13T03:38:42.094Z,99.99
2018-08-13T03:40:34.866Z,99.99
2018-08-13T03:41:34.786Z,99.99
2018-08-13T03:43:27.565Z,99.99
2018-08-13T03:44:27.501Z,99.99
2018-08-13T03:46:20.275Z,99.99
2018-08-13T03:47:20.193Z,99.99
2018-08-13T03:49:12.963Z,99.99
2018-08-13T03:50:12.974Z,99.99
2018-08-13T03:52:05.676Z,99.99
2018-08-13T03:53:05.600Z,99.99
2018-08-13T03:54:58.384Z,99.99
2018-08-13T03:55:58.311Z,99.99
2018-08-13T03:57:51.087Z,99.99
2018-08-13T03:58:51.020Z,99.99
2018-08-13T04:00:43.786Z,99.99
2018-08-13T04:01:43.726Z,99.99
2018-08-13T04:03:36.486Z,99.99
2018-08-13T04:04:36.422Z,99.99
2018-08-13T04:06:29.230Z,99.99
2018-08-13T04:07:29.137Z,99.99
2018-08-13T04:09:21.913Z,99.99
2018-08-13T04:10:21.855Z,99.99
2018-08-13T04:12:14.712Z,99.99
2018-08-13T04:13:14.585Z,99.99
2018-08-13T04:15:07.369Z,99.99
2018-08-13T04:16:07.296Z,99.99
2018-08-13T04:18:00.089Z,99.99
2018-08-13T04:19:00.045Z,99.99
2018-08-13T04:20:52.846Z,99.99
2018-08-13T04:21:52.740Z,99.99
2018-08-13T04:23:45.516Z,99.99
2018-08-13T04:24:45.457Z,99.99
2018-08-13T04:26:38.239Z,99.99
2018-08-13T04:27:38.175Z,99.99
2018-08-13T04:29:30.957Z,99.99
2018-08-13T04:30:30.887Z,99.99
2018-08-13T04:32:23.693Z,99.99
2018-08-13T04:33:23.604Z,99.99
2018-08-13T04:35:16.415Z,99.99
2018-08-13T04:36:16.312Z,99.99
2018-08-13T04:38:09.120Z,99.99
2018-08-13T04:39:09.058Z,99.99
2018-08-13T04:41:01.868Z,99.99
2018-08-13T04:42:01.776Z,99.99
2018-08-13T04:43:54.582Z,99.99
2018-08-13T04:44:54.500Z,99.99
2018-08-13T04:46:47.289Z,99.99
2018-08-13T04:47:47.233Z,99.99
2018-08-13T04:49:40.043Z,99.99
2018-08-13T04:50:39.946Z,99.99
2018-08-13T04:52:32.721Z,99.99
2018-08-13T04:53:32.646Z,99.99
2018-08-13T04:55:25.436Z,99.99
2018-08-13T04:56:25.367Z,99.72
2018-08-13T04:58:18.162Z,99.99
2018-08-13T04:59:18.086Z,99.99
2018-08-13T05:01:10.871Z,99.99
2018-08-13T05:02:10.795Z,99.99
2018-08-13T05:04:03.585Z,99.99
2018-08-13T05:05:03.531Z,99.99
2018-08-13T05:06:56.297Z,99.29
2018-08-13T05:07:56.225Z,99.99
2018-08-13T05:09:49.020Z,99.99
2018-08-13T05:10:48.952Z,99.15
2018-08-13T05:12:41.729Z,99.99
2018-08-13T05:13:41.652Z,99.99
2018-08-13T05:15:34.431Z,99.05
2018-08-13T05:16:34.362Z,99.99
2018-08-13T05:18:27.198Z,99.68
2018-08-13T05:19:27.104Z,96.89
2018-08-13T05:21:19.996Z,95.46
2018-08-13T05:22:19.804Z,95.56
2018-08-13T05:24:12.601Z,95.70
2018-08-13T05:25:12.529Z,95.31
2018-08-13T05:27:05.308Z,98.00
2018-08-13T05:28:05.219Z,96.03
2018-08-13T05:29:58.066Z,92.48
2018-08-13T05:30:57.998Z,91.86
2018-08-13T05:32:50.717Z,89.79
2018-08-13T05:33:50.642Z,87.87
2018-08-13T05:35:43.475Z,89.83
2018-08-13T05:36:43.410Z,85.27
2018-08-13T05:38:36.193Z,84.16
2018-08-13T05:39:36.108Z,82.04
2018-08-13T05:41:28.886Z,82.21
2018-08-13T05:42:28.808Z,80.52
2018-08-13T05:44:21.629Z,74.51
2018-08-13T05:45:21.558Z,72.42
2018-08-13T05:47:14.659Z,71.56
2018-08-13T05:48:14.423Z,70.62
2018-08-13T05:50:07.190Z,64.43
2018-08-13T05:51:07.106Z,62.07
2018-08-13T05:52:59.924Z,59.03
2018-08-13T05:53:59.821Z,59.03
2018-08-13T05:55:52.626Z,58.40
2018-08-13T05:56:52.544Z,59.01
2018-08-13T05:58:45.319Z,55.27
2018-08-13T05:59:45.278Z,54.40
2018-08-13T06:01:38.181Z,54.06
2018-08-13T06:02:38.106Z,52.63
2018-08-13T06:04:30.878Z,51.09
2018-08-13T06:05:30.813Z,52.17
2018-08-13T06:07:23.616Z,49.15
2018-08-13T06:08:23.534Z,50.60
2018-08-13T06:10:16.346Z,51.48
2018-08-13T06:11:16.339Z,51.70
2018-08-13T06:13:09.067Z,48.85
2018-08-13T06:14:08.993Z,51.14
2018-08-13T06:16:01.859Z,52.26
2018-08-13T06:17:01.796Z,52.45
2018-08-13T06:18:54.667Z,52.92
2018-08-13T06:19:54.593Z,54.79
2018-08-13T06:21:47.406Z,54.65
2018-08-13T06:22:47.338Z,53.31
2018-08-13T06:24:40.136Z,51.87
2018-08-13T06:25:40.086Z,48.95
2018-08-13T06:27:32.894Z,48.29
2018-08-13T06:28:32.823Z,50.10
2018-08-13T06:30:25.618Z,45.04
2018-08-13T06:31:25.556Z,45.84
2018-08-13T06:33:18.380Z,46.84
2018-08-13T06:34:18.324Z,44.71
2018-08-13T06:36:11.110Z,43.93
2018-08-13T06:37:11.071Z,44.64
2018-08-13T06:39:03.938Z,44.34
2018-08-13T06:40:03.862Z,44.85
2018-08-13T06:41:56.673Z,43.84
2018-08-13T06:42:56.610Z,44.03
2018-08-13T06:44:49.402Z,43.17
2018-08-13T06:45:49.347Z,42.78
2018-08-13T06:47:42.157Z,43.34
2018-08-13T06:48:42.093Z,42.85
2018-08-13T06:50:34.911Z,42.90
2018-08-13T06:51:34.840Z,42.02
2018-08-13T06:53:27.640Z,42.46
2018-08-13T06:54:27.574Z,42.54
2018-08-13T06:56:20.473Z,44.57
2018-08-13T06:57:20.361Z,44.48
2018-08-13T06:59:13.352Z,44.62
2018-08-13T07:00:13.268Z,44.15
2018-08-13T07:02:06.100Z,41.42
2018-08-13T07:03:06.025Z,43.60
2018-08-13T07:04:58.821Z,40.84
2018-08-13T07:05:58.808Z,42.15
2018-08-13T07:07:51.593Z,44.62
2018-08-13T07:08:51.530Z,45.32
2018-08-13T07:10:44.335Z,41.72
2018-08-13T07:11:44.286Z,41.72
2018-08-13T07:13:37.119Z,41.94
2018-08-13T07:14:37.055Z,43.52
2018-08-13T07:16:29.842Z,43.18
2018-08-13T07:17:29.797Z,41.19
2018-08-13T07:19:22.604Z,40.92
2018-08-13T07:20:22.535Z,40.16
2018-08-13T07:22:15.514Z,41.11
2018-08-13T07:23:15.403Z,42.21
2018-08-13T07:25:08.153Z,40.06
2018-08-13T07:26:08.101Z,38.40
2018-08-13T07:28:00.966Z,40.80
2018-08-13T07:29:00.876Z,38.44
2018-08-13T07:30:53.706Z,39.31
2018-08-13T07:31:53.661Z,39.86
2018-08-13T07:33:46.544Z,39.58
2018-08-13T07:34:46.410Z,37.92
2018-08-13T07:36:39.226Z,37.82
2018-08-13T07:37:39.186Z,37.65
2018-08-13T07:39:32.049Z,37.65
2018-08-13T07:40:31.935Z,40.03
2018-08-13T07:42:24.742Z,37.99
2018-08-13T07:43:24.676Z,36.80
2018-08-13T07:45:17.471Z,38.01
2018-08-13T07:46:17.427Z,39.15
2018-08-13T07:48:10.265Z,37.18
2018-08-13T07:49:10.207Z,37.38
2018-08-13T07:51:03.001Z,37.89
2018-08-13T07:52:02.958Z,36.10
2018-08-13T07:53:55.842Z,38.81
2018-08-13T07:54:55.722Z,37.95
2018-08-13T07:56:48.538Z,34.67
2018-08-13T07:57:48.492Z,36.86
2018-08-13T07:59:41.294Z,37.07
2018-08-13T08:00:41.233Z,36.29
2018-08-13T08:02:34.103Z,37.21
2018-08-13T08:03:34.041Z,37.01
2018-08-13T08:05:26.878Z,36.32
2018-08-13T08:06:26.818Z,33.46
2018-08-13T08:08:19.692Z,34.51
2018-08-13T08:09:19.752Z,34.41
2018-08-13T08:11:12.455Z,36.42
2018-08-13T08:12:12.397Z,35.35
2018-08-13T08:14:05.230Z,35.86
2018-08-13T08:15:05.167Z,33.59
2018-08-13T08:16:58.003Z,32.68
2018-08-13T08:17:57.933Z,33.06
2018-08-13T08:19:50.762Z,34.36
2018-08-13T08:20:50.708Z,33.16
2018-08-13T08:22:43.517Z,33.18
2018-08-13T08:23:43.447Z,34.95
2018-08-13T08:25:36.253Z,32.21
2018-08-13T08:26:36.192Z,32.92
2018-08-13T08:28:29.016Z,32.60
2018-08-13T08:29:29.026Z,32.01
2018-08-13T08:31:21.773Z,33.03
2018-08-13T08:32:21.723Z,33.61
2018-08-13T08:34:14.563Z,34.13
2018-08-13T08:35:14.502Z,35.43
2018-08-13T08:37:07.337Z,32.84
2018-08-13T08:38:07.259Z,34.23
2018-08-13T08:40:00.065Z,34.74
2018-08-13T08:41:00.094Z,33.18
2018-08-13T08:42:52.828Z,32.65
2018-08-13T08:43:52.763Z,33.33
2018-08-13T08:45:45.572Z,32.24
2018-08-13T08:46:45.525Z,32.75
2018-08-13T08:48:38.361Z,32.19
2018-08-13T08:49:38.298Z,32.18
2018-08-13T08:51:31.139Z,32.21
2018-08-13T08:52:31.099Z,30.71
2018-08-13T08:54:23.888Z,31.06
2018-08-13T08:55:23.846Z,30.45
2018-08-13T08:57:16.646Z,33.26
2018-08-13T08:58:16.594Z,31.57
2018-08-13T09:00:09.417Z,32.74
2018-08-13T09:01:09.356Z,33.13
2018-08-13T09:03:02.234Z,34.78
2018-08-13T09:04:02.122Z,36.77
2018-08-13T09:05:54.962Z,33.94
2018-08-13T09:06:54.877Z,35.13
2018-08-13T09:08:47.695Z,34.10
2018-08-13T09:09:47.667Z,32.65
2018-08-13T09:11:40.429Z,32.67
2018-08-13T09:12:40.384Z,32.09
2018-08-13T09:14:33.209Z,30.74
2018-08-13T09:15:33.139Z,30.65
2018-08-13T09:17:25.948Z,29.93
2018-08-13T09:18:25.880Z,31.30
2018-08-13T09:20:18.722Z,31.86
2018-08-13T09:21:18.628Z,31.68
2018-08-13T09:23:11.437Z,31.63
2018-08-13T09:24:11.376Z,33.01
2018-08-13T09:26:04.721Z,34.06
2018-08-13T09:27:04.670Z,33.58
2018-08-13T09:28:57.497Z,32.20
2018-08-13T09:29:57.483Z,33.00
2018-08-13T09:31:50.233Z,34.10
2018-08-13T09:32:50.192Z,34.31
2018-08-13T09:34:43.318Z,30.57
2018-08-13T09:35:43.247Z,30.24
2018-08-13T09:37:36.058Z,30.93
2018-08-13T09:38:36.004Z,31.24
2018-08-13T09:40:28.824Z,30.00
2018-08-13T09:41:28.776Z,30.89
2018-08-13T09:43:21.594Z,29.64
2018-08-13T09:44:21.526Z,29.05
2018-08-13T09:46:14.360Z,30.85
2018-08-13T09:47:14.273Z,28.85
2018-08-13T09:49:07.133Z,28.34
2018-08-13T09:50:07.115Z,28.92
2018-08-13T09:51:59.849Z,27.92
2018-08-13T09:52:59.796Z,27.82
2018-08-13T09:54:52.640Z,28.33
2018-08-13T09:55:52.572Z,28.80
2018-08-13T09:57:45.395Z,28.38
2018-08-13T09:58:45.347Z,28.58
2018-08-13T10:00:38.194Z,28.88
2018-08-13T10:01:38.107Z,28.68
2018-08-13T10:03:30.919Z,28.19
2018-08-13T10:04:30.892Z,29.72
2018-08-13T10:06:24.119Z,30.66
2018-08-13T10:07:23.683Z,31.92
2018-08-13T10:09:16.506Z,33.22
2018-08-13T10:10:16.419Z,31.56
2018-08-13T10:12:09.274Z,30.97
2018-08-13T10:13:09.206Z,31.16
2018-08-13T10:15:02.008Z,32.97
2018-08-13T10:16:01.942Z,30.82
2018-08-13T10:17:54.821Z,31.51
2018-08-13T10:18:54.719Z,29.74
2018-08-13T10:20:47.587Z,31.83
2018-08-13T10:21:47.495Z,29.48
2018-08-13T10:23:40.316Z,28.21
2018-08-13T10:24:40.241Z,28.50
2018-08-13T10:26:33.064Z,30.86
2018-08-13T10:27:32.993Z,31.35
2018-08-13T10:29:25.793Z,30.66
2018-08-13T10:30:25.733Z,30.68
2018-08-13T10:32:18.577Z,31.27
2018-08-13T10:33:18.515Z,29.00
2018-08-13T10:35:11.408Z,30.29
2018-08-13T10:36:11.302Z,29.89
2018-08-13T10:38:04.226Z,31.76
2018-08-13T10:39:04.160Z,29.50
2018-08-13T10:40:57.041Z,28.99
2018-08-13T10:41:56.998Z,29.66
2018-08-13T10:43:49.856Z,32.39
2018-08-13T10:44:49.820Z,31.79
2018-08-13T10:46:43.896Z,30.68
2018-08-13T10:47:43.636Z,30.76
2018-08-13T10:49:36.460Z,31.81
2018-08-13T10:50:36.480Z,33.18
2018-08-13T10:52:29.311Z,30.52
2018-08-13T10:53:29.254Z,31.60
2018-08-13T10:55:22.366Z,35.93
2018-08-13T10:56:22.291Z,33.49
2018-08-13T10:58:15.242Z,35.59
2018-08-13T10:59:15.205Z,34.61
2018-08-13T11:01:08.115Z,33.94
2018-08-13T11:02:07.979Z,30.79
2018-08-13T11:04:00.875Z,31.49
2018-08-13T11:05:00.902Z,32.56
2018-08-13T11:06:53.928Z,34.13
2018-08-13T11:07:53.811Z,32.72
2018-08-13T11:09:46.629Z,30.84
2018-08-13T11:10:46.565Z,31.13
2018-08-13T11:12:39.412Z,32.33
2018-08-13T11:13:39.328Z,32.64
2018-08-13T11:15:32.212Z,30.46
2018-08-13T11:16:32.136Z,30.95
2018-08-13T11:18:24.971Z,31.74
2018-08-13T11:19:24.908Z,32.92
2018-08-13T11:21:17.808Z,31.53
2018-08-13T11:22:17.767Z,33.51
2018-08-13T11:24:10.584Z,33.31
2018-08-13T11:25:10.569Z,32.33
2018-08-13T11:27:03.340Z,32.81
2018-08-13T11:28:03.274Z,33.39
2018-08-13T11:29:56.417Z,31.51
2018-08-13T11:30:56.206Z,32.59
2018-08-13T11:32:49.261Z,35.52
2018-08-13T11:33:49.175Z,33.26
2018-08-13T11:35:42.082Z,31.58
2018-08-13T11:36:42.019Z,32.37
2018-08-13T11:38:34.905Z,31.67
2018-08-13T11:39:34.843Z,30.88
2018-08-13T11:41:27.950Z,32.76
2018-08-13T11:42:27.624Z,32.86
2018-08-13T11:44:20.574Z,34.13
2018-08-13T11:45:20.451Z,34.52
2018-08-13T11:47:13.307Z,33.14
2018-08-13T11:48:13.235Z,34.11
2018-08-13T11:50:06.064Z,34.01
2018-08-13T11:51:06.055Z,32.94
2018-08-13T11:52:58.950Z,34.00
2018-08-13T11:53:58.906Z,33.89
2018-08-13T11:55:51.765Z,35.04
2018-08-13T11:56:51.692Z,36.10
2018-08-13T11:58:44.537Z,32.78
2018-08-13T11:59:44.508Z,33.85
2018-08-13T12:01:37.371Z,33.07
2018-08-13T12:02:37.257Z,32.87
2018-08-13T12:04:30.171Z,34.83
2018-08-13T12:05:30.100Z,34.54
2018-08-13T12:07:22.964Z,33.95
2018-08-13T12:08:22.926Z,32.97
2018-08-13T12:10:15.713Z,33.34
2018-08-13T12:11:15.698Z,33.84
2018-08-13T12:13:08.410Z,38.43
2018-08-13T12:14:08.466Z,35.99
2018-08-13T12:16:01.238Z,36.20
2018-08-13T12:17:01.081Z,36.98
2018-08-13T12:18:53.959Z,33.15
2018-08-13T12:19:53.924Z,32.17
2018-08-13T12:21:46.768Z,31.88
2018-08-13T12:22:46.719Z,31.49
2018-08-13T12:24:39.464Z,32.66
2018-08-13T12:25:39.367Z,32.95
2018-08-13T12:27:32.212Z,32.46
2018-08-13T12:28:32.121Z,35.60
2018-08-13T12:30:24.974Z,34.05
2018-08-13T12:31:24.923Z,35.13
2018-08-13T12:33:17.738Z,33.28
2018-08-13T12:34:17.671Z,32.70
2018-08-13T12:36:10.481Z,32.89
2018-08-13T12:37:10.433Z,32.99
2018-08-13T12:39:03.242Z,33.89
2018-08-13T12:40:03.161Z,32.71
2018-08-13T12:41:55.975Z,32.63
2018-08-13T12:42:55.911Z,33.31
2018-08-13T12:44:48.703Z,32.35
2018-08-13T12:45:48.650Z,31.96
2018-08-13T12:47:41.623Z,31.86
2018-08-13T12:48:41.420Z,32.45
2018-08-13T12:50:34.245Z,31.07
2018-08-13T12:51:34.185Z,31.67
2018-08-13T12:53:27.002Z,30.98
2018-08-13T12:54:26.938Z,34.31
2018-08-13T12:56:19.787Z,34.51
2018-08-13T12:57:19.761Z,33.33
2018-08-13T12:59:12.591Z,33.53
2018-08-13T13:00:12.582Z,32.27
2018-08-13T13:02:05.340Z,31.87
2018-08-13T13:03:05.280Z,32.95
2018-08-13T13:04:58.214Z,32.56
2018-08-13T13:05:58.175Z,31.77
2018-08-13T13:07:50.970Z,30.99
2018-08-13T13:08:50.912Z,31.37
2018-08-13T13:10:43.748Z,31.37
2018-08-13T13:11:43.627Z,31.47
2018-08-13T13:13:36.569Z,32.84
2018-08-13T13:14:36.455Z,32.94
2018-08-13T13:16:29.256Z,33.14
2018-08-13T13:17:29.150Z,33.33
2018-08-13T13:19:22.077Z,34.20
2018-08-13T13:20:21.976Z,33.90
2018-08-13T13:22:14.813Z,34.98
2018-08-13T13:23:14.739Z,32.92
2018-08-13T13:25:07.554Z,35.08
2018-08-13T13:26:07.497Z,35.66
2018-08-13T13:28:00.295Z,34.49
2018-08-13T13:29:00.235Z,32.82
2018-08-13T13:30:53.012Z,33.90
2018-08-13T13:31:52.957Z,34.10
2018-08-13T13:33:45.776Z,32.43
2018-08-13T13:34:45.849Z,32.03
2018-08-13T13:36:38.565Z,35.37
2018-08-13T13:37:38.514Z,36.14
2018-08-13T13:39:31.338Z,38.70
2018-08-13T13:40:31.330Z,36.65
2018-08-13T13:42:24.137Z,36.04
2018-08-13T13:43:24.324Z,32.90
2018-08-13T13:45:16.828Z,34.08
2018-08-13T13:46:16.823Z,35.85
2018-08-13T13:48:09.584Z,37.81
2018-08-13T13:49:09.503Z,34.86
2018-08-13T13:51:02.326Z,34.69
2018-08-13T13:52:02.322Z,36.72
2018-08-13T13:53:55.061Z,33.98
2018-08-13T13:54:55.000Z,35.35
2018-08-13T13:56:47.820Z,33.89
2018-08-13T13:57:47.753Z,33.97
2018-08-13T13:59:40.606Z,35.44
2018-08-13T14:00:40.502Z,35.34
2018-08-13T14:02:33.302Z,34.54
2018-08-13T14:03:33.223Z,36.18
2018-08-13T14:05:26.035Z,34.62
2018-08-13T14:06:26.038Z,36.57
2018-08-13T14:08:18.835Z,36.47
2018-08-13T14:09:18.769Z,35.89
2018-08-13T14:11:11.568Z,37.45
2018-08-13T14:12:11.502Z,36.77
2018-08-13T14:14:04.326Z,37.73
2018-08-13T14:15:04.254Z,37.14
2018-08-13T14:16:57.063Z,37.04
2018-08-13T14:17:56.997Z,38.51
2018-08-13T14:19:49.843Z,35.77
2018-08-13T14:20:49.717Z,37.02
2018-08-13T14:22:42.565Z,37.04
2018-08-13T14:23:42.499Z,37.71
2018-08-13T14:25:35.375Z,38.42
2018-08-13T14:26:35.316Z,37.34
2018-08-13T14:28:28.125Z,37.04
2018-08-13T14:29:28.046Z,39.78
2018-08-13T14:31:20.847Z,41.54
2018-08-13T14:32:20.783Z,39.29
2018-08-13T14:34:14.105Z,41.15
2018-08-13T14:35:13.988Z,40.25
2018-08-13T14:37:06.981Z,45.75
2018-08-13T14:38:06.901Z,43.20
2018-08-13T14:39:59.788Z,41.33
2018-08-13T14:40:59.635Z,41.11
2018-08-13T14:42:52.426Z,41.60
2018-08-13T14:43:52.350Z,40.33
2018-08-13T14:45:45.132Z,40.14
2018-08-13T14:46:45.081Z,40.14
2018-08-13T14:48:37.870Z,41.82
2018-08-13T14:49:37.797Z,41.52
2018-08-13T14:51:30.634Z,41.50
2018-08-13T14:52:30.549Z,42.29
2018-08-13T14:54:23.398Z,42.09
2018-08-13T14:55:23.330Z,43.07
2018-08-13T14:57:16.137Z,43.04
2018-08-13T14:58:16.223Z,42.75
2018-08-13T15:00:08.893Z,42.85
2018-08-13T15:01:08.829Z,43.24
2018-08-13T15:03:01.628Z,44.02
2018-08-13T15:04:01.569Z,44.31
2018-08-13T15:05:54.356Z,45.39
2018-08-13T15:06:54.345Z,45.00
2018-08-13T15:08:47.097Z,45.36
2018-08-13T15:09:47.026Z,44.58
2018-08-13T15:11:39.828Z,45.56
2018-08-13T15:12:39.757Z,45.85
2018-08-13T15:14:32.546Z,46.24
2018-08-13T15:15:32.480Z,45.65
2018-08-13T15:17:25.265Z,46.83
2018-08-13T15:18:25.211Z,47.02
2018-08-13T15:20:18.061Z,46.44
2018-08-13T15:21:17.988Z,46.83
2018-08-13T15:23:10.795Z,46.02
2018-08-13T15:24:10.728Z,47.90
2018-08-13T15:26:03.548Z,47.97
2018-08-13T15:27:03.555Z,48.75
2018-08-13T15:28:56.300Z,48.17
2018-08-13T15:29:56.298Z,48.75
2018-08-13T15:31:49.013Z,48.24
2018-08-13T15:32:48.980Z,49.71
2018-08-13T15:34:41.762Z,49.61
2018-08-13T15:35:41.764Z,49.29
2018-08-13T15:37:34.487Z,50.26
2018-08-13T15:38:34.428Z,50.85
2018-08-13T15:40:27.223Z,50.75
2018-08-13T15:41:27.153Z,51.61
2018-08-13T15:43:19.959Z,51.02
2018-08-13T15:44:19.899Z,51.70
2018-08-13T15:46:12.685Z,51.09
2018-08-13T15:47:12.630Z,51.39
2018-08-13T15:49:05.452Z,51.77
2018-08-13T15:50:05.371Z,53.11
2018-08-13T15:51:58.203Z,52.72
2018-08-13T15:52:58.102Z,52.92
2018-08-13T15:54:50.926Z,55.35
2018-08-13T15:55:50.835Z,55.22
2018-08-13T15:57:43.652Z,55.03
2018-08-13T15:58:43.590Z,55.39
2018-08-13T16:00:36.513Z,53.93
2018-08-13T16:01:36.456Z,54.52
2018-08-13T16:03:29.240Z,55.00
2018-08-13T16:04:29.172Z,56.07
2018-08-13T16:06:21.940Z,57.04
2018-08-13T16:07:21.880Z,59.08
2018-08-13T16:09:14.716Z,62.87
2018-08-13T16:10:14.647Z,65.47
2018-08-13T16:12:07.458Z,65.33
2018-08-13T16:13:07.410Z,64.85
2018-08-13T16:15:00.188Z,63.36
2018-08-13T16:16:00.129Z,64.04
2018-08-13T16:17:52.918Z,62.01
2018-08-13T16:18:52.866Z,63.10
2018-08-13T16:20:45.694Z,64.17
2018-08-13T16:21:45.597Z,64.95
2018-08-13T16:23:38.509Z,66.69
2018-08-13T16:24:38.364Z,67.96
2018-08-13T16:26:31.145Z,67.18
2018-08-13T16:27:31.075Z,67.57
2018-08-13T16:29:24.453Z,70.45
2018-08-13T16:30:23.808Z,74.95
2018-08-13T16:32:16.585Z,70.06
2018-08-13T16:33:16.525Z,70.25
2018-08-13T16:35:09.320Z,72.74
2018-08-13T16:36:09.253Z,72.35
2018-08-13T16:38:02.138Z,76.14
2018-08-13T16:39:02.099Z,72.16
2018-08-13T16:40:54.907Z,73.58
2018-08-13T16:41:54.824Z,72.41
2018-08-13T16:43:47.671Z,74.16
2018-08-13T16:44:47.586Z,70.57
2018-08-13T16:46:40.412Z,68.44
2018-08-13T16:47:40.357Z,69.02
2018-08-13T16:49:33.215Z,67.66
2018-08-13T16:53:18.267Z,67.50
2018-08-13T16:54:18.193Z,67.99
2018-08-13T16:56:11.060Z,66.53
2018-08-13T16:57:10.976Z,67.31
2018-08-13T16:59:03.727Z,66.44
2018-08-13T17:00:03.653Z,66.34
2018-08-13T17:01:56.490Z,65.56
2018-08-13T17:02:56.908Z,67.21
2018-08-13T17:04:49.280Z,67.79
2018-08-13T17:05:49.192Z,68.47
2018-08-13T17:07:42.167Z,68.37
2018-08-13T17:08:42.113Z,69.34
2018-08-13T17:10:34.904Z,69.73
2018-08-13T17:11:34.836Z,69.83
2018-08-13T17:13:27.677Z,69.06
2018-08-13T17:14:27.815Z,69.15
2018-08-13T17:16:20.412Z,68.08
2018-08-13T17:17:20.311Z,69.64
2018-08-13T17:19:13.225Z,68.47
2018-08-13T17:20:13.045Z,69.54
2018-08-13T17:22:06.092Z,70.86
2018-08-13T17:23:05.979Z,70.51
2018-08-13T17:24:58.848Z,70.41
2018-08-13T17:25:58.717Z,70.70
2018-08-13T17:27:51.555Z,70.51
2018-08-13T17:28:51.493Z,68.47
2018-08-13T17:30:44.319Z,69.34
2018-08-13T17:31:44.244Z,68.05
2018-08-13T17:33:37.046Z,69.31
2018-08-13T17:34:36.961Z,69.60
2018-08-13T17:36:29.812Z,70.96
2018-08-13T17:37:29.728Z,69.02
2018-08-13T17:39:22.540Z,69.99
2018-08-13T17:40:22.486Z,69.70
2018-08-13T17:42:15.274Z,69.50
2018-08-13T17:43:15.439Z,70.47
2018-08-13T17:45:08.026Z,69.18
2018-08-13T17:46:08.055Z,70.05
2018-08-13T17:48:00.826Z,70.73
2018-08-13T17:49:00.709Z,70.44
2018-08-13T17:50:53.570Z,70.73
2018-08-13T17:51:53.457Z,70.34
2018-08-13T17:53:46.283Z,70.44
2018-08-13T17:54:46.205Z,71.70
2018-08-13T17:56:39.145Z,71.50
2018-08-13T17:57:39.093Z,71.41
2018-08-13T17:59:32.369Z,70.92
2018-08-13T18:00:32.167Z,70.25
2018-08-13T18:02:25.616Z,70.92
2018-08-13T18:03:25.209Z,70.92
2018-08-13T18:05:18.578Z,72.28
2018-08-13T18:06:18.271Z,71.50
2018-08-13T18:08:11.181Z,71.80
2018-08-13T18:09:11.117Z,71.41
2018-08-13T18:11:03.865Z,71.41
2018-08-13T18:12:03.896Z,74.12
2018-08-13T18:13:56.653Z,73.73
2018-08-13T18:14:56.594Z,72.28
2018-08-13T18:16:49.363Z,72.67
2018-08-13T18:17:49.291Z,73.83
2018-08-13T18:19:42.139Z,71.50
2018-08-13T18:20:42.044Z,70.79
2018-08-13T18:22:34.862Z,71.18
2018-08-13T18:23:34.792Z,70.89
2018-08-13T18:25:27.589Z,71.56
2018-08-13T18:26:27.516Z,72.18
2018-08-13T18:28:20.330Z,71.41
2018-08-13T18:29:20.239Z,71.02
2018-08-13T18:31:13.055Z,72.96
2018-08-13T18:32:13.045Z,71.50
2018-08-13T18:34:05.768Z,71.70
2018-08-13T18:35:05.707Z,71.70